Annette Island, AK

8:51 PM AKDT on August 24, 2016 (GMT -0800)
Annette Island | | Change Station

Elev 112 ft 55.04 °N, 131.57 °W | Updated 58 minutes ago

Clear
Clear
67 °F
Feels Like 67 °F
N
12
Wind Variable Wind from NNW
Gusts 20 mph

Today
High -- | Low -- °F
--% Chance of Precip.
Yesterday
High -- | Low -- °F
Precip. -- in
Pressure 30.42 in
Visibility 10.0 miles
Clouds Clear
Dew Point 55 °F
Humidity 66%
Rainfall 0.00 in
Snow Depth Not available.
5:38 AM 7:56 PM
Waning Gibbous, 49% visible
METAR PANT 250353Z AUTO 33010G17KT 10SM CLR 19/13 A3041 RMK AO2 SLP299 T01940128 TSNO
Pressure 30.42 in
Visibility 10.0 miles
Clouds Clear
Dew Point 55 °F
Humidity 66%
Rainfall 0.00 in
Snow Depth Not available.
5:38 AM 7:56 PM
Waning Gibbous, 49% visible
METAR PANT 250353Z AUTO 33010G17KT 10SM CLR 19/13 A3041 RMK AO2 SLP299 T01940128 TSNO

10-Day Weather Forecast

Almanac

Astronomy

Aug. 24, 2016 Rise Set
Actual Time
Civil Twilight
Nautical Twilight
Astronomical Twilight
Moon
Length of Visible Light
Length of Day
Tomorrow will be .
, % of the Moon is Illuminated

Today's Extremes

State Highs State Lows

Community

WunderPhotos

Upload Photos

1,934,798 photos uploaded!

WunderBlog® & News

Nearby

Air Quality

  Air Quality AQ Index Pollutant
Not available.

Snow Depth

Station Depth Elevation

Earthquake Activity

City Distance Mag. Time & Date
Minimum magnitude displayed is 2.5.

Coastal Water Temperatures

Place Temperature

Stations

Nearby Weather Stations

Station Location Temp. Windchill Dew Point Humidity Wind Precip. Elev Updated Type
                   

Watches & Warnings

There are currently no watches in effect.